Time;durP1;ratioP1;P1;durP2;ratioP2;P2;SDS_P1;SDS_P2;PMS_P1;PMS_P2;Temp;Humidity;BMP_temperature;BMP_pressure;BME280_temperature;BME280_humidity;BME280_pressure;Samples;Min_cycle;Max_cycle;Signal;HPM_P1;HPM_P2
2023/03/24 00:02:18;;;;;;;4.55;3.58;;;11.20;99.90;;;;;;4942437;28;90218;-33
2023/03/24 00:04:46;;;;;;;16.00;4.72;;;11.20;99.90;;;;;;4942326;28;89463;-35
2023/03/24 00:07:13;;;;;;;8.52;3.90;;;11.20;99.90;;;;;;4942437;28;90143;-33
2023/03/24 00:09:41;;;;;;;5.88;4.40;;;11.20;99.90;;;;;;4942302;28;88646;-35
2023/03/24 00:12:12;;;;;;;10.67;4.73;;;11.20;99.90;;;;;;4942083;28;90244;-32
2023/03/24 00:14:39;;;;;;;6.03;4.15;;;11.20;99.90;;;;;;4942283;28;90273;-31
2023/03/24 00:17:08;;;;;;;10.90;4.55;;;11.20;99.90;;;;;;4942041;28;90226;-32
2023/03/24 00:19:37;;;;;;;6.18;4.25;;;11.20;99.90;;;;;;4941503;28;90816;-32
2023/03/24 00:22:07;;;;;;;5.63;3.58;;;11.20;99.90;;;;;;4941553;28;90369;-35
2023/03/24 00:24:33;;;;;;;7.78;4.72;;;11.20;99.90;;;;;;4941703;28;89796;-35
2023/03/24 00:26:59;;;;;;;3.47;3.05;;;11.20;99.90;;;;;;4941890;28;89188;-33
2023/03/24 00:29:26;;;;;;;8.65;4.25;;;11.20;99.90;;;;;;4941981;28;89093;-33
2023/03/24 00:31:52;;;;;;;5.75;4.25;;;11.20;99.90;;;;;;4941627;28;89884;-34
2023/03/24 00:34:20;;;;;;;5.63;3.35;;;11.20;99.90;;;;;;4941939;28;90377;-30
2023/03/24 00:36:50;;;;;;;5.05;3.90;;;11.20;99.90;;;;;;4941724;28;90515;-33
2023/03/24 00:39:17;;;;;;;4.80;3.88;;;11.20;99.90;;;;;;4941876;28;88041;-31
2023/03/24 00:41:45;;;;;;;5.15;3.50;;;11.20;99.90;;;;;;4940969;28;90519;-31
2023/03/24 00:44:16;;;;;;;8.50;4.72;;;11.20;99.90;;;;;;4940888;28;91131;-34
2023/03/24 00:46:54;;;;;;;4.43;3.70;;;11.20;99.90;;;;;;4941237;28;90363;-31
2023/03/24 00:49:40;;;;;;;10.63;4.45;;;11.20;99.90;;;;;;4941875;28;89300;-35
2023/03/24 00:52:19;;;;;;;6.60;4.65;;;11.10;99.90;;;;;;4941127;28;90415;-34
2023/03/24 00:54:49;;;;;;;6.22;4.53;;;11.10;99.90;;;;;;4941019;28;88945;-31
2023/03/24 00:57:21;;;;;;;5.00;3.63;;;11.10;99.90;;;;;;4940417;28;89686;-34
2023/03/24 00:59:48;;;;;;;5.50;3.95;;;11.10;99.90;;;;;;4941398;28;89187;-31
2023/03/24 01:02:21;;;;;;;9.00;4.18;;;11.10;99.90;;;;;;4941424;28;89805;-31
2023/03/24 01:04:52;;;;;;;7.63;3.78;;;11.10;99.90;;;;;;4940784;28;89273;-32
2023/03/24 01:07:22;;;;;;;6.90;4.32;;;11.10;99.90;;;;;;4941594;28;90074;-34
2023/03/24 01:09:56;;;;;;;5.82;4.13;;;11.10;99.90;;;;;;4940490;28;90072;-32
2023/03/24 01:12:24;;;;;;;5.90;4.13;;;11.10;99.90;;;;;;4941705;28;88967;-34
2023/03/24 01:14:51;;;;;;;4.60;3.60;;;11.10;99.90;;;;;;4941547;28;89707;-34
2023/03/24 01:17:18;;;;;;;6.43;3.78;;;11.10;99.90;;;;;;4941053;28;88182;-33
2023/03/24 01:19:44;;;;;;;5.18;2.92;;;11.10;99.90;;;;;;4940934;28;90208;-31
2023/03/24 01:22:10;;;;;;;5.32;3.33;;;11.10;99.90;;;;;;4941077;28;89629;-33
2023/03/24 01:24:35;;;;;;;5.35;4.40;;;11.10;99.90;;;;;;4940834;28;90230;-32
2023/03/24 01:27:01;;;;;;;6.30;3.80;;;11.10;99.90;;;;;;4940935;28;88948;-32
2023/03/24 01:29:27;;;;;;;4.32;4.03;;;11.10;99.90;;;;;;4941221;28;89838;-32
2023/03/24 01:31:53;;;;;;;5.78;3.80;;;11.10;99.90;;;;;;4940520;28;91508;-32
2023/03/24 01:34:18;;;;;;;8.23;3.83;;;11.10;99.90;;;;;;4940183;28;90591;-32
2023/03/24 01:36:44;;;;;;;4.70;3.78;;;11.10;99.90;;;;;;4940358;28;90369;-30
2023/03/24 01:39:09;;;;;;;7.45;4.20;;;11.10;99.90;;;;;;4941509;28;89176;-30
2023/03/24 01:41:37;;;;;;;5.22;3.67;;;11.10;99.90;;;;;;4940737;28;90404;-32
2023/03/24 01:44:23;;;;;;;5.63;4.15;;;11.20;99.90;;;;;;4940179;28;89683;-33
2023/03/24 01:46:49;;;;;;;17.58;4.78;;;11.20;99.90;;;;;;4940814;28;89364;-33
2023/03/24 01:49:15;;;;;;;6.28;4.28;;;11.20;99.90;;;;;;4941402;28;89920;-33
2023/03/24 01:51:44;;;;;;;4.85;3.90;;;11.20;99.90;;;;;;4940419;28;89741;-31
2023/03/24 01:54:17;;;;;;;4.95;4.28;;;11.20;99.90;;;;;;4940076;28;88971;-33
2023/03/24 01:56:47;;;;;;;4.88;3.83;;;11.20;99.90;;;;;;4939935;28;90067;-30
2023/03/24 01:59:20;;;;;;;3.75;3.45;;;11.20;99.90;;;;;;4940626;28;88543;-32
2023/03/24 02:01:46;;;;;;;8.70;5.18;;;11.20;99.90;;;;;;4940481;28;90339;-35
2023/03/24 02:04:13;;;;;;;6.60;4.68;;;11.20;99.90;;;;;;4941015;28;89435;-32
2023/03/24 02:06:42;;;;;;;4.65;3.85;;;11.20;99.90;;;;;;4939616;28;89513;-34
2023/03/24 02:09:10;;;;;;;5.10;4.20;;;11.20;99.90;;;;;;4939578;28;88932;-31
2023/03/24 02:11:37;;;;;;;4.90;4.18;;;11.20;99.90;;;;;;4940357;28;90781;-33
2023/03/24 02:14:04;;;;;;;5.13;3.93;;;11.30;99.90;;;;;;4922576;28;89552;-33
2023/03/24 02:16:52;;;;;;;6.18;4.53;;;11.20;99.90;;;;;;4940432;28;89578;-33
2023/03/24 02:19:22;;;;;;;;;;;11.30;99.90;;;;;;4940676;28;89638;-32
2023/03/24 02:22:34;;;;;;;6.00;4.13;;;11.30;99.90;;;;;;4940956;28;90267;-31
2023/03/24 02:25:23;;;;;;;4.85;4.28;;;11.30;99.90;;;;;;4939440;28;90468;-31
2023/03/24 02:28:17;;;;;;;5.10;4.10;;;11.30;99.90;;;;;;4939225;28;90092;-32
2023/03/24 02:31:11;;;;;;;9.73;4.20;;;11.30;99.90;;;;;;4940106;28;88773;-30
2023/03/24 02:34:08;;;;;;;9.57;4.10;;;11.40;99.90;;;;;;4939712;28;89597;-30
2023/03/24 02:37:01;;;;;;;7.32;5.07;;;11.40;99.90;;;;;;4940215;28;89921;-31
2023/03/24 02:39:38;;;;;;;5.38;4.63;;;11.40;99.90;;;;;;4940550;28;89005;-33
2023/03/24 02:42:25;;;;;;;5.13;4.45;;;11.40;99.90;;;;;;4940518;28;88552;-33
2023/03/24 02:45:04;;;;;;;9.77;5.35;;;11.40;99.90;;;;;;4939507;28;91780;-33
2023/03/24 02:47:35;;;;;;;6.75;4.53;;;11.50;99.90;;;;;;4939751;28;89490;-34
2023/03/24 02:50:27;;;;;;;6.72;4.55;;;11.50;99.90;;;;;;4939864;28;91491;-29
2023/03/24 02:53:03;;;;;;;7.43;5.88;;;11.50;99.90;;;;;;4939712;28;90394;-35
2023/03/24 02:55:57;;;;;;;6.20;5.15;;;11.50;99.90;;;;;;4939777;28;89417;-34
2023/03/24 02:58:38;;;;;;;8.65;4.47;;;11.50;99.90;;;;;;4938290;28;89814;-33
2023/03/24 03:01:52;;;;;;;6.43;4.43;;;11.50;99.90;;;;;;4939423;28;89331;-33
2023/03/24 03:04:25;;;;;;;7.43;4.72;;;11.50;99.90;;;;;;4879202;28;88147;-32
2023/03/24 03:06:56;;;;;;;5.88;4.75;;;11.50;99.90;;;;;;4935405;28;89922;-30
2023/03/24 03:09:23;;;;;;;6.55;4.75;;;11.50;99.90;;;;;;4939881;28;88555;-34
2023/03/24 03:11:52;;;;;;;7.70;5.13;;;11.50;99.90;;;;;;4938731;28;89826;-34
2023/03/24 03:14:29;;;;;;;6.15;4.32;;;11.50;99.90;;;;;;4939740;28;88898;-33
2023/03/24 03:17:05;;;;;;;5.00;4.50;;;11.50;99.90;;;;;;4939211;28;90023;-31
2023/03/24 03:19:32;;;;;;;6.28;4.70;;;11.50;99.90;;;;;;4940012;28;90182;-32
2023/03/24 03:21:59;;;;;;;7.82;4.93;;;11.60;99.90;;;;;;4942723;28;90534;-31
2023/03/24 03:24:31;;;;;;;6.03;4.25;;;11.50;99.90;;;;;;4942921;28;89373;-33
2023/03/24 03:27:01;;;;;;;5.13;4.57;;;11.60;99.90;;;;;;4942702;28;89171;-32
2023/03/24 03:29:33;;;;;;;4.57;4.18;;;11.60;99.90;;;;;;4942819;28;89933;-30
2023/03/24 03:32:08;;;;;;;5.22;4.68;;;11.60;99.90;;;;;;4942328;28;90238;-34
2023/03/24 03:34:53;;;;;;;4.70;4.30;;;11.60;99.90;;;;;;4943062;28;89722;-30
2023/03/24 03:37:40;;;;;;;8.02;4.60;;;11.70;99.90;;;;;;4942736;28;90700;-32
2023/03/24 03:40:19;;;;;;;4.50;4.03;;;11.70;99.90;;;;;;4942715;28;89371;-33
2023/03/24 03:42:45;;;;;;;5.05;4.40;;;11.70;99.90;;;;;;4942801;28;89591;-32
2023/03/24 03:45:13;;;;;;;4.90;3.78;;;11.70;99.90;;;;;;4942682;28;89145;-31
2023/03/24 03:47:39;;;;;;;4.50;3.75;;;11.70;99.90;;;;;;4942438;28;89971;-31
2023/03/24 03:50:07;;;;;;;4.18;3.78;;;11.70;99.90;;;;;;4942404;28;89551;-32
2023/03/24 03:52:33;;;;;;;;;;;11.70;99.90;;;;;;4942834;28;89433;-33
2023/03/24 03:55:00;;;;;;;8.40;4.05;;;11.70;99.90;;;;;;4943382;28;89802;-29
2023/03/24 03:57:26;;;;;;;4.72;4.32;;;11.70;99.90;;;;;;4941775;28;89970;-33
2023/03/24 03:59:52;;;;;;;5.97;3.65;;;11.70;99.90;;;;;;4942328;28;88958;-31
2023/03/24 04:03:11;;;;;;;3.47;3.17;;;11.70;99.90;;;;;;4942163;28;89515;-32
2023/03/24 04:06:04;;;;;;;3.35;2.92;;;11.70;99.90;;;;;;4882171;28;88388;-32
2023/03/24 04:08:44;;;;;;;5.95;3.63;;;11.70;99.90;;;;;;4940027;28;90494;-30
2023/03/24 04:11:54;;;;;;;3.53;3.22;;;11.70;99.90;;;;;;4941496;28;90727;-31
2023/03/24 04:14:39;;;;;;;5.45;3.72;;;11.60;99.90;;;;;;4881305;28;90887;-32
2023/03/24 04:17:20;;;;;;;3.70;2.83;;;11.40;99.90;;;;;;4937034;28;88757;-30
2023/03/24 04:19:55;;;;;;;2.97;2.70;;;11.40;99.90;;;;;;4942057;28;90156;-31
2023/03/24 04:22:30;;;;;;;4.70;2.92;;;11.20;99.90;;;;;;4941555;28;90163;-33
2023/03/24 04:25:18;;;;;;;4.47;2.63;;;11.20;99.90;;;;;;4942618;28;89419;-31
2023/03/24 04:28:08;;;;;;;2.47;2.28;;;11.10;99.90;;;;;;4943048;28;90268;-33
2023/03/24 04:30:41;;;;;;;4.10;2.80;;;11.00;99.90;;;;;;4942542;28;90641;-31
2023/03/24 04:33:23;;;;;;;2.88;2.33;;;10.90;99.90;;;;;;4941521;28;89537;-29
2023/03/24 04:36:17;;;;;;;4.43;2.45;;;10.80;99.90;;;;;;4942084;28;89743;-32
2023/03/24 04:38:47;;;;;;;2.80;2.53;;;10.80;99.90;;;;;;4941118;28;89270;-33
2023/03/24 04:41:16;;;;;;;3.20;2.15;;;10.70;99.90;;;;;;4941628;28;89970;-33
2023/03/24 04:43:44;;;;;;;2.90;2.65;;;10.70;99.90;;;;;;4941786;28;88831;-34
2023/03/24 04:46:10;;;;;;;10.15;5.05;;;10.60;99.90;;;;;;4942100;28;89495;-31
2023/03/24 04:48:35;;;;;;;8.40;2.97;;;10.60;99.90;;;;;;4941804;28;90142;-32
2023/03/24 04:51:02;;;;;;;2.83;2.42;;;10.60;99.90;;;;;;4941252;28;90204;-33
2023/03/24 04:53:28;;;;;;;3.40;2.78;;;10.60;99.90;;;;;;4941740;28;88444;-32
2023/03/24 04:56:18;;;;;;;8.30;3.33;;;10.50;99.90;;;;;;4941030;28;89485;-29
2023/03/24 04:58:44;;;;;;;4.90;2.67;;;10.50;99.90;;;;;;4941521;28;88758;-33
2023/03/24 05:01:10;;;;;;;8.05;3.08;;;10.40;99.90;;;;;;4941294;28;89345;-30
2023/03/24 05:03:36;;;;;;;3.83;1.88;;;10.30;99.90;;;;;;4941344;28;90786;-33
2023/03/24 05:06:04;;;;;;;4.57;2.35;;;10.40;99.90;;;;;;4940656;28;90262;-33
2023/03/24 05:08:30;;;;;;;7.70;3.45;;;10.30;99.90;;;;;;4941686;28;89589;-31
2023/03/24 05:10:56;;;;;;;11.05;2.58;;;10.30;99.90;;;;;;4941511;28;89935;-32
2023/03/24 05:13:22;;;;;;;3.30;3.00;;;10.20;99.90;;;;;;4941282;28;90042;-32
2023/03/24 05:15:47;;;;;;;5.25;2.83;;;10.20;99.90;;;;;;4941525;28;89853;-31
2023/03/24 05:18:13;;;;;;;3.83;2.83;;;10.20;99.90;;;;;;4941987;28;89430;-32
2023/03/24 05:20:38;;;;;;;4.43;3.22;;;10.20;99.90;;;;;;4940799;28;90282;-31
2023/03/24 05:23:04;;;;;;;5.90;2.92;;;10.20;99.90;;;;;;4941172;28;89626;-33
2023/03/24 05:25:30;;;;;;;8.18;3.08;;;10.10;99.90;;;;;;4940815;28;90497;-31
2023/03/24 05:27:55;;;;;;;8.85;3.70;;;10.20;99.90;;;;;;4941181;28;88642;-30
2023/03/24 05:30:21;;;;;;;9.32;3.97;;;10.10;99.90;;;;;;4940774;28;90357;-31
2023/03/24 05:32:47;;;;;;;9.02;3.05;;;10.10;99.90;;;;;;4940509;28;89236;-34
2023/03/24 05:35:13;;;;;;;6.38;3.63;;;10.20;99.90;;;;;;4941380;28;89332;-29
2023/03/24 05:37:39;;;;;;;9.18;4.13;;;10.10;99.90;;;;;;4940854;28;89335;-32
2023/03/24 05:40:05;;;;;;;8.50;3.03;;;10.10;99.90;;;;;;4941322;28;90727;-33
2023/03/24 05:42:31;;;;;;;12.05;3.35;;;10.10;99.90;;;;;;4939662;28;89247;-31
2023/03/24 05:44:57;;;;;;;4.78;3.05;;;10.10;99.90;;;;;;4940552;28;89697;-32
2023/03/24 05:47:23;;;;;;;13.93;4.18;;;10.10;99.90;;;;;;4940772;28;88799;-33
2023/03/24 05:49:49;;;;;;;8.98;4.35;;;10.00;99.90;;;;;;4940295;28;89804;-33
2023/03/24 05:52:15;;;;;;;17.05;3.60;;;10.10;99.90;;;;;;4940086;28;90254;-29
2023/03/24 05:54:41;;;;;;;8.30;3.83;;;10.10;99.90;;;;;;4938130;28;90115;-31
2023/03/24 05:57:13;;;;;;;7.38;2.97;;;10.10;99.90;;;;;;4940936;28;89674;-33
2023/03/24 05:59:39;;;;;;;5.45;2.88;;;10.00;99.90;;;;;;4940470;28;92012;-32
2023/03/24 06:02:04;;;;;;;5.22;2.38;;;10.00;99.90;;;;;;4940045;28;90255;-30
2023/03/24 06:04:30;;;;;;;7.43;2.92;;;10.00;99.90;;;;;;4940968;28;90377;-30
2023/03/24 06:06:59;;;;;;;15.25;2.95;;;10.00;99.90;;;;;;4940389;28;88820;-30
2023/03/24 06:09:31;;;;;;;5.07;2.92;;;10.00;99.90;;;;;;4940307;28;90348;-33
2023/03/24 06:11:58;;;;;;;5.28;3.10;;;9.90;99.90;;;;;;4940218;28;89745;-31
2023/03/24 06:14:24;;;;;;;3.60;2.47;;;10.00;99.90;;;;;;4939866;28;89964;-30
2023/03/24 06:16:50;;;;;;;7.22;2.10;;;9.90;99.90;;;;;;4940401;28;89583;-33
2023/03/24 06:19:16;;;;;;;16.20;3.38;;;9.90;99.90;;;;;;4940074;28;90088;-31
2023/03/24 06:21:43;;;;;;;3.97;2.33;;;9.90;99.90;;;;;;4939647;28;89859;-34
2023/03/24 06:24:13;;;;;;;7.05;2.30;;;9.90;99.90;;;;;;4940152;28;89050;-32
2023/03/24 06:26:40;;;;;;;6.03;2.35;;;9.90;99.90;;;;;;4940748;28;89158;-30
2023/03/24 06:29:07;;;;;;;8.27;3.10;;;9.90;99.90;;;;;;4939662;28;91620;-30
2023/03/24 06:31:33;;;;;;;6.90;2.33;;;9.90;99.90;;;;;;4939908;28;88621;-34
2023/03/24 06:33:58;;;;;;;9.32;2.60;;;9.90;99.90;;;;;;4940193;28;89022;-33
2023/03/24 06:36:24;;;;;;;6.70;2.65;;;9.90;99.90;;;;;;4939664;28;88748;-33
2023/03/24 06:38:50;;;;;;;10.40;2.10;;;9.90;99.90;;;;;;4940218;28;89829;-30
2023/03/24 06:41:16;;;;;;;4.00;2.63;;;10.00;99.90;;;;;;4939669;28;91268;-33
2023/03/24 06:43:41;;;;;;;7.13;2.70;;;10.00;99.90;;;;;;4939352;28;90452;-30
2023/03/24 06:46:08;;;;;;;4.00;2.08;;;10.00;99.90;;;;;;4940189;28;89114;-31
2023/03/24 06:48:34;;;;;;;6.68;2.72;;;10.00;99.90;;;;;;4939576;28;89705;-30
2023/03/24 06:51:00;;;;;;;8.20;3.17;;;10.10;99.90;;;;;;4939824;28;89867;-34
2023/03/24 06:53:26;;;;;;;12.07;3.33;;;10.10;99.90;;;;;;4940562;28;88602;-30
2023/03/24 06:55:52;;;;;;;7.20;3.35;;;10.10;99.90;;;;;;4942898;28;88732;-30
2023/03/24 06:58:17;;;;;;;8.20;3.50;;;10.10;99.90;;;;;;4943583;28;90253;-34
2023/03/24 07:00:45;;;;;;;5.88;2.28;;;10.10;99.90;;;;;;4942963;28;89630;-31
2023/03/24 07:03:12;;;;;;;6.47;2.60;;;10.10;99.90;;;;;;4942775;28;88943;-33
2023/03/24 07:05:44;;;;;;;9.25;4.18;;;10.20;99.90;;;;;;4943448;28;88198;-32
2023/03/24 07:08:13;;;;;;;7.30;3.00;;;10.20;99.90;;;;;;4943002;28;90477;-31
2023/03/24 07:10:40;;;;;;;8.52;3.92;;;10.20;99.90;;;;;;4942922;28;90202;-31
2023/03/24 07:13:06;;;;;;;9.32;3.33;;;10.20;99.90;;;;;;4943120;28;89200;-31
2023/03/24 07:15:32;;;;;;;4.93;3.83;;;10.30;99.90;;;;;;4943509;28;89252;-33
2023/03/24 07:17:59;;;;;;;12.05;3.67;;;10.30;99.90;;;;;;4943463;28;90785;-31
2023/03/24 07:20:25;;;;;;;8.27;4.22;;;10.30;99.90;;;;;;4943310;28;89847;-28
2023/03/24 07:22:54;;;;;;;9.25;3.20;;;10.30;99.90;;;;;;4942709;28;89467;-30
2023/03/24 07:25:20;;;;;;;8.85;3.67;;;10.30;99.90;;;;;;4943142;28;89460;-30
2023/03/24 07:27:45;;;;;;;6.90;2.88;;;10.30;99.90;;;;;;4942818;28;90245;-29
2023/03/24 07:30:12;;;;;;;8.23;2.60;;;10.30;99.90;;;;;;4941988;28;90229;-34
2023/03/24 07:32:38;;;;;;;9.10;2.40;;;10.30;99.90;;;;;;4942703;28;88538;-35
2023/03/24 07:35:09;;;;;;;13.10;2.70;;;10.30;99.90;;;;;;4943096;28;89290;-30
2023/03/24 07:37:35;;;;;;;13.40;3.35;;;10.30;99.90;;;;;;4942948;28;89961;-32
2023/03/24 07:40:05;;;;;;;12.98;2.97;;;10.40;99.90;;;;;;4942779;28;89654;-31
2023/03/24 07:42:31;;;;;;;8.18;4.30;;;10.40;99.90;;;;;;4942463;28;89763;-30
2023/03/24 07:44:56;;;;;;;5.38;2.30;;;10.40;99.90;;;;;;4941989;28;89386;-34
2023/03/24 07:47:22;;;;;;;6.65;3.55;;;10.40;99.90;;;;;;4942744;28;90268;-32
2023/03/24 07:49:47;;;;;;;9.93;3.17;;;10.40;99.90;;;;;;4941979;28;90307;-29
2023/03/24 07:52:13;;;;;;;12.57;3.33;;;10.30;99.90;;;;;;4942465;28;90694;-32
2023/03/24 07:54:39;;;;;;;11.13;2.97;;;10.40;99.90;;;;;;4941766;28;90040;-31
2023/03/24 07:57:05;;;;;;;15.18;4.00;;;10.40;99.90;;;;;;4942808;28;90135;-33
2023/03/24 07:59:32;;;;;;;9.95;4.28;;;10.40;99.90;;;;;;4942874;28;89664;-31
2023/03/24 08:01:58;;;;;;;14.60;5.93;;;10.40;99.90;;;;;;4941974;28;89536;-32
2023/03/24 08:04:26;;;;;;;12.80;4.47;;;10.50;99.90;;;;;;4942516;28;89281;-34
2023/03/24 08:06:52;;;;;;;14.57;5.90;;;10.50;99.90;;;;;;4942072;28;90380;-32
2023/03/24 08:09:18;;;;;;;17.33;4.82;;;10.50;99.90;;;;;;4942048;28;89318;-33
2023/03/24 08:11:44;;;;;;;10.07;3.95;;;10.70;99.90;;;;;;4942856;28;89825;-29
2023/03/24 08:14:10;;;;;;;18.90;5.32;;;10.70;99.90;;;;;;4942597;28;89596;-32
2023/03/24 08:16:37;;;;;;;18.73;5.93;;;11.00;99.90;;;;;;4941991;28;89926;-31
2023/03/24 08:19:03;;;;;;;21.85;5.05;;;11.10;99.90;;;;;;4941441;28;90246;-34
2023/03/24 08:21:29;;;;;;;11.38;3.60;;;11.10;99.90;;;;;;4942410;28;90731;-29
2023/03/24 08:23:55;;;;;;;15.63;4.10;;;11.10;99.90;;;;;;4941480;28;87900;-32
2023/03/24 08:26:21;;;;;;;9.68;5.22;;;11.20;99.90;;;;;;4942752;28;89273;-30
2023/03/24 08:28:48;;;;;;;14.63;4.65;;;11.00;99.90;;;;;;4941415;28;89205;-31
2023/03/24 08:31:14;;;;;;;10.63;4.10;;;11.00;99.90;;;;;;4942304;28;89723;-32
2023/03/24 08:33:40;;;;;;;13.82;5.53;;;11.00;99.90;;;;;;4942071;28;88340;-34
2023/03/24 08:36:07;;;;;;;16.15;4.82;;;11.20;99.90;;;;;;4941776;28;90167;-32
2023/03/24 08:38:33;;;;;;;7.60;4.10;;;11.30;99.90;;;;;;4927134;28;90022;-32
2023/03/24 08:41:01;;;;;;;11.35;4.72;;;11.30;99.90;;;;;;4938317;28;89408;-32
2023/03/24 08:43:29;;;;;;;11.48;3.45;;;11.40;99.90;;;;;;4939557;28;89999;-30
2023/03/24 08:45:57;;;;;;;15.13;5.97;;;11.40;99.90;;;;;;4938214;28;90366;-31
2023/03/24 08:48:23;;;;;;;12.87;5.63;;;11.50;99.90;;;;;;4937766;28;89754;-34
2023/03/24 08:50:49;;;;;;;12.35;4.32;;;11.60;99.90;;;;;;4938728;28;89244;-33
2023/03/24 08:53:15;;;;;;;9.10;3.58;;;12.00;99.90;;;;;;4938555;28;89486;-31
2023/03/24 08:55:42;;;;;;;7.80;3.50;;;11.90;99.90;;;;;;4938650;28;90038;-34
2023/03/24 08:58:15;;;;;;;9.55;3.88;;;11.70;99.90;;;;;;4938984;28;89193;-32
2023/03/24 09:00:43;;;;;;;17.10;4.78;;;11.70;99.90;;;;;;4938813;28;89539;-31
2023/03/24 09:03:12;;;;;;;10.70;4.32;;;11.50;99.90;;;;;;4939304;28;89783;-32
2023/03/24 09:05:38;;;;;;;8.75;4.00;;;11.40;99.90;;;;;;4939721;28;89631;-31
2023/03/24 09:08:04;;;;;;;6.88;4.07;;;11.30;99.90;;;;;;4938601;28;90671;-31
2023/03/24 09:10:30;;;;;;;9.05;4.00;;;11.20;99.90;;;;;;4920913;28;90967;-34
2023/03/24 09:12:55;;;;;;;9.05;3.25;;;11.20;99.90;;;;;;4919724;28;88495;-32
2023/03/24 09:15:21;;;;;;;9.60;3.13;;;11.30;99.90;;;;;;4919505;28;90233;-30
2023/03/24 09:17:46;;;;;;;8.35;3.78;;;11.60;99.90;;;;;;4919020;28;89228;-31
2023/03/24 09:20:14;;;;;;;11.77;4.00;;;12.00;99.90;;;;;;4919635;28;89555;-34
2023/03/24 09:22:44;;;;;;;15.88;4.60;;;12.20;99.90;;;;;;4918863;28;88594;-32
2023/03/24 09:25:11;;;;;;;15.40;3.92;;;12.60;99.90;;;;;;4919240;28;90355;-31
2023/03/24 09:27:38;;;;;;;11.70;4.35;;;12.60;99.90;;;;;;4919425;28;89854;-35
2023/03/24 09:30:05;;;;;;;12.43;4.07;;;12.90;99.90;;;;;;4919753;28;88229;-31
2023/03/24 09:32:32;;;;;;;9.38;3.55;;;13.10;99.90;;;;;;4923045;28;89984;-32
2023/03/24 09:34:58;;;;;;;5.35;3.88;;;13.30;99.90;;;;;;4936986;28;89836;-35
2023/03/24 09:37:24;;;;;;;8.43;4.18;;;13.60;99.90;;;;;;4938234;28;90447;-32
2023/03/24 09:39:50;;;;;;;16.60;3.75;;;13.70;99.90;;;;;;4938182;28;89118;-34
2023/03/24 09:42:25;;;;;;;11.43;4.00;;;13.60;99.90;;;;;;4939601;28;89443;-32
2023/03/24 09:44:56;;;;;;;12.15;5.13;;;13.70;99.90;;;;;;4938656;28;90545;-31
2023/03/24 09:47:35;;;;;;;7.32;3.90;;;13.50;99.90;;;;;;4939409;28;89423;-31
2023/03/24 09:50:05;;;;;;;8.98;4.47;;;13.40;99.90;;;;;;4938317;28;88995;-33
2023/03/24 09:52:36;;;;;;;17.00;4.63;;;13.00;99.90;;;;;;4938827;28;88435;-34
2023/03/24 09:55:03;;;;;;;9.50;3.15;;;12.70;99.90;;;;;;4937470;28;90749;-31
2023/03/24 09:57:46;;;;;;;11.85;4.43;;;12.60;99.90;;;;;;4939137;28;90658;-34
2023/03/24 10:00:21;;;;;;;18.38;4.70;;;12.60;99.90;;;;;;4940085;28;90526;-30
2023/03/24 10:02:47;;;;;;;15.20;4.72;;;13.00;99.90;;;;;;4940361;28;88844;-32
2023/03/24 10:05:28;;;;;;;11.95;3.75;;;13.20;99.90;;;;;;4939315;28;90068;-32
2023/03/24 10:08:05;;;;;;;7.07;3.08;;;13.70;99.90;;;;;;4939115;28;89685;-30
2023/03/24 10:10:49;;;;;;;17.58;4.43;;;13.60;99.90;;;;;;4939996;28;89113;-31
2023/03/24 10:13:46;;;;;;;11.23;3.35;;;13.60;99.90;;;;;;4940588;28;89091;-29
2023/03/24 10:16:45;;;;;;;16.60;4.82;;;13.80;99.90;;;;;;4905984;28;90303;-33
2023/03/24 10:19:31;;;;;;;7.75;3.20;;;13.80;99.90;;;;;;4922976;28;90051;-33
2023/03/24 10:22:03;;;;;;;18.13;3.88;;;13.60;99.90;;;;;;4939793;28;90253;-34
2023/03/24 10:24:41;;;;;;;6.88;4.28;;;13.80;99.90;;;;;;4940131;28;88810;-33
2023/03/24 10:27:21;;;;;;;9.00;3.67;;;14.00;99.90;;;;;;4940785;28;89508;-30
2023/03/24 10:29:51;;;;;;;13.80;3.78;;;14.00;99.90;;;;;;4939694;28;89978;-32
2023/03/24 10:32:24;;;;;;;10.48;3.65;;;14.20;99.90;;;;;;4939839;28;89809;-31
2023/03/24 10:35:08;;;;;;;8.35;3.40;;;14.20;99.90;;;;;;4940040;28;89069;-30
2023/03/24 10:37:34;;;;;;;9.88;3.20;;;14.00;99.90;;;;;;4939894;28;90340;-33
2023/03/24 10:40:00;;;;;;;5.10;3.97;;;13.90;99.90;;;;;;4939685;28;90213;-33
2023/03/24 10:42:31;;;;;;;11.80;3.65;;;14.00;99.90;;;;;;4940026;28;89354;-32
2023/03/24 10:44:58;;;;;;;15.88;3.47;;;14.00;99.90;;;;;;4939605;28;87634;-33
2023/03/24 10:47:27;;;;;;;11.50;3.00;;;14.00;99.90;;;;;;4940092;28;90060;-31
2023/03/24 10:50:07;;;;;;;8.40;3.45;;;14.10;99.90;;;;;;4939408;28;90227;-34
2023/03/24 10:52:41;;;;;;;10.52;3.08;;;13.90;99.90;;;;;;4939561;28;91004;-32
2023/03/24 10:55:15;;;;;;;11.70;3.03;;;13.80;99.90;;;;;;4939465;28;89019;-35
2023/03/24 10:57:44;;;;;;;6.70;3.40;;;13.80;99.90;;;;;;4940229;28;90030;-34
2023/03/24 11:00:21;;;;;;;9.73;3.83;;;13.70;99.90;;;;;;4940020;28;89650;-32
2023/03/24 11:02:59;;;;;;;19.63;4.03;;;13.70;99.90;;;;;;4939929;28;89374;-32
2023/03/24 11:05:32;;;;;;;5.13;3.20;;;13.60;99.90;;;;;;4939567;28;88131;-35
2023/03/24 11:08:30;;;;;;;7.00;3.47;;;13.50;99.90;;;;;;4940184;28;90219;-32
2023/03/24 11:10:55;;;;;;;;;;;13.60;99.90;;;;;;4896176;28;90784;-32
2023/03/24 11:13:32;;;;;;;12.65;3.78;;;13.50;99.90;;;;;;4940206;28;89840;-33
2023/03/24 11:16:09;;;;;;;14.45;3.58;;;14.00;99.90;;;;;;4938981;28;90990;-32
2023/03/24 11:18:34;;;;;;;13.23;3.55;;;14.20;99.90;;;;;;4939880;28;90217;-32
2023/03/24 11:21:05;;;;;;;12.88;3.28;;;14.50;99.90;;;;;;4939099;28;89092;-31
2023/03/24 11:23:33;;;;;;;6.93;3.60;;;14.80;99.90;;;;;;4921243;28;89234;-31
2023/03/24 11:26:28;;;;;;;8.00;3.70;;;15.10;99.90;;;;;;4939587;28;89760;-32
2023/03/24 11:29:00;;;;;;;8.75;2.70;;;14.80;99.00;;;;;;4939342;28;90828;-31
2023/03/24 11:31:32;;;;;;;15.05;2.88;;;14.60;91.50;;;;;;4939724;28;89603;-31
2023/03/24 11:34:08;;;;;;;12.13;3.22;;;14.60;98.50;;;;;;4939480;28;89917;-31
2023/03/24 11:36:41;;;;;;;11.25;3.55;;;14.50;96.70;;;;;;4939620;28;88042;-33
2023/03/24 11:39:13;;;;;;;21.60;3.50;;;14.40;99.90;;;;;;4939585;28;89456;-33
2023/03/24 11:42:00;;;;;;;10.43;3.22;;;14.50;91.40;;;;;;4939573;28;90835;-36
2023/03/24 11:44:29;;;;;;;9.30;3.27;;;14.50;94.80;;;;;;4926819;28;90883;-34
2023/03/24 11:47:02;;;;;;;11.55;3.75;;;14.50;99.90;;;;;;4940207;28;88143;-33
2023/03/24 11:49:33;;;;;;;8.23;3.33;;;14.30;92.60;;;;;;4940168;28;90319;-36
2023/03/24 11:52:01;;;;;;;6.22;2.63;;;14.50;91.70;;;;;;4939507;28;89846;-35
2023/03/24 11:54:35;;;;;;;8.40;3.37;;;14.60;99.20;;;;;;4974946;22;93915;-35
2023/03/24 11:57:10;;;;;;;10.88;3.05;;;14.90;99.90;;;;;;4940396;28;89446;-33
2023/03/24 12:00:07;;;;;;;9.63;3.60;;;14.70;99.90;;;;;;4940408;28;90062;-31
2023/03/24 12:03:02;;;;;;;15.73;4.07;;;14.60;99.90;;;;;;4940132;28;89506;-32
2023/03/24 12:05:47;;;;;;;6.75;2.88;;;14.20;99.90;;;;;;4940377;28;89623;-34
2023/03/24 12:08:40;;;;;;;7.18;2.80;;;14.40;99.90;;;;;;4940003;28;89434;-33
2023/03/24 12:11:11;;;;;;;7.20;2.55;;;14.50;99.90;;;;;;4940293;28;90395;-35
2023/03/24 12:13:48;;;;;;;8.57;3.28;;;14.60;99.90;;;;;;4940064;28;89970;-36
2023/03/24 12:16:35;;;;;;;5.50;2.65;;;14.70;99.90;;;;;;4940791;28;90017;-33
2023/03/24 12:19:06;;;;;;;9.98;3.05;;;14.60;95.50;;;;;;4940350;28;88755;-35
2023/03/24 12:21:38;;;;;;;3.33;2.90;;;14.60;99.90;;;;;;4939577;28;91241;-31
2023/03/24 12:24:43;;;;;;;9.90;3.60;;;14.70;99.90;;;;;;4939342;28;90911;-31
2023/03/24 12:27:34;;;;;;;7.30;2.95;;;14.50;99.90;;;;;;4940711;28;88359;-36
2023/03/24 12:30:14;;;;;;;5.85;2.83;;;14.70;99.90;;;;;;4939224;28;90195;-33
2023/03/24 12:33:23;;;;;;;11.98;3.55;;;14.50;99.90;;;;;;4939275;28;90191;-33
2023/03/24 12:36:10;;;;;;;4.30;3.35;;;14.50;99.90;;;;;;4938944;28;90541;-34
2023/03/24 12:39:05;;;;;;;13.95;3.17;;;14.60;99.90;;;;;;4939965;28;90798;-32
2023/03/24 12:41:37;;;;;;;8.77;3.67;;;14.80;99.90;;;;;;4938847;28;88800;-34
2023/03/24 12:44:31;;;;;;;6.80;2.60;;;14.80;99.90;;;;;;4938616;28;90252;-34
2023/03/24 12:47:37;;;;;;;9.70;4.43;;;14.80;99.90;;;;;;4939003;28;90250;-34
2023/03/24 12:50:14;;;;;;;5.18;2.90;;;14.40;99.90;;;;;;4939543;28;89724;-31
2023/03/24 12:53:06;;;;;;;11.02;3.25;;;14.30;99.90;;;;;;4939256;28;88459;-34
2023/03/24 12:55:31;;;;;;;9.70;3.20;;;14.50;99.90;;;;;;4939044;28;90235;-34
2023/03/24 12:58:04;;;;;;;5.10;2.85;;;14.60;99.90;;;;;;4939681;28;90006;-30
2023/03/24 13:00:40;;;;;;;8.13;2.92;;;14.60;99.90;;;;;;4939719;28;89645;-35
2023/03/24 13:03:13;;;;;;;13.23;3.30;;;14.60;94.30;;;;;;4939387;28;88153;-31
2023/03/24 13:05:48;;;;;;;11.52;2.90;;;14.70;96.90;;;;;;4939061;28;90604;-35
2023/03/24 13:08:28;;;;;;;4.78;2.40;;;14.80;92.30;;;;;;4939597;28;90897;-31
2023/03/24 13:10:58;;;;;;;13.52;2.95;;;14.80;94.10;;;;;;4939252;28;89766;-34
2023/03/24 13:13:31;;;;;;;6.82;3.53;;;14.80;87.00;;;;;;4940071;28;87694;-30